Skip Navigation Links
NOAA logo - Click to go to the NOAA homepage
NOAA's National Weather Service
Alaska Aviation Weather Unit
  NWS logo - Click to go to the NWS homepage
Left Navbar Graphic     18 AKDT = 02 GMT

   
NOAA is celebrating 200 years of science, service, and stewardship. Visit the NOAA 200th celebration Web site to learn more.
USA.gov is the U.S. Government's official Web portal to all Federal, state and local government Web resources and services.
Facebook
NWS on Facebook

Important Change Regarding the AAWU Web Presence

 

Over the last several months, the AAWU has been working to navigate its webpages to a nationally supported server. Security, as well as other needs, have necessitated the change.  In the process, we have made an effort to enhance the functionality of our website, as well as some of our products. As of June 20, 2017, aawu.arh.noaa.gov will be discontinued. The new AAWU web address is weather.gov/aawu. It is now live and will run in-parallel with the old site until it is discontinued. Please send any feedback or questions regarding the new webpages to nws.ar.aawu.webauthors@noaa.gov.  Thank you for your patience during this time of transition.
AAWU Home :: Display TAF Add Bookmark
TESTM CENA2 242017Z AUTO 1305KT 10SM  SCT140 15/M00 A2983 RMK A02 SLP029 T01511003

TESTM CENA2 242047Z AUTO 00000KT 10SM  FEW070 BKN140 15/M01 A2982 RMK A02 SLP027 T01521006

TESTM CENA2 242117Z AUTO 2103KT 10SM  FEW070 16/M02 A2981 RMK A02 SLP023 T01551022

TESTM CENA2 242147Z AUTO 00000KT 10SM  FEW070 16/M02 A2980 RMK A02 SLP020 T01551025

TESTM CENA2 242217Z AUTO 00000KT 10SM  SKC 16/M03 A2979 RMK A02 SLP016 T01591030

TESTM CENA2 242247Z AUTO 1003KT 10SM  FEW110 16/M02 A2977 RMK A02 SLP013 T01591017

TESTM CENA2 242317Z AUTO 0703KT 10SM  FEW075 FEW085 17/M02 A2976 RMK A02 SLP007 T01671021

TESTM CENA2 242347Z AUTO 1202KT 10SM  BKN075 16/M02 A2974 RMK A02 SLP003 T01631021

TESTM CENA2 250017Z AUTO 0903KT 10SM  OVC080 16/M02 A2973 RMK A02 SLP999 T01611018

TESTM CENA2 250047Z AUTO 00000KT 10SM  OVC080 16/M02 A2972 RMK A02 SLP998 T01581016

TESTM CENA2 250117Z AUTO 00000KT 10SM  OVC080 16/M02 A2972 RMK A02 SLP996 T01591020

TESTM CENA2 250147Z AUTO 00000KT 10SM  BKN080 17/M01 A2971 RMK A02 SLP994 T01661008

TESTM CENA2 250247Z AUTO 00000KT 10SM  BKN075 16/M01 A2970 RMK A02 SLP990 T01651012


NOAA's National Weather Service
Alaska Aviation Weather Unit
6930 Sand Lake Road
Anchorage, AK 99502-1845
Disclaimer
Credits
Glossary
Privacy Policy
About Us
Career Opportunities
Contact AAWU Internet Services Site last modified: April, 17th 2012